sensor_id;sensor_type;location;lat;lon;timestamp;P1;durP1;ratioP1;P2;durP2;ratioP2
7027;SDS011;3555;53.248;10.336;2023-07-28T00:01:43;2.40;;;2.00;;
7027;SDS011;3555;53.248;10.336;2023-07-28T00:04:11;2.10;;;1.90;;
7027;SDS011;3555;53.248;10.336;2023-07-28T00:06:38;2.35;;;2.15;;
7027;SDS011;3555;53.248;10.336;2023-07-28T00:09:05;2.28;;;2.08;;
7027;SDS011;3555;53.248;10.336;2023-07-28T00:11:32;2.40;;;2.20;;
7027;SDS011;3555;53.248;10.336;2023-07-28T00:13:58;3.53;;;2.47;;
7027;SDS011;3555;53.248;10.336;2023-07-28T00:16:25;2.90;;;2.20;;
7027;SDS011;3555;53.248;10.336;2023-07-28T00:18:52;2.40;;;2.20;;
7027;SDS011;3555;53.248;10.336;2023-07-28T00:21:20;2.60;;;2.40;;
7027;SDS011;3555;53.248;10.336;2023-07-28T00:23:47;2.70;;;2.47;;
7027;SDS011;3555;53.248;10.336;2023-07-28T00:26:14;2.22;;;2.03;;
7027;SDS011;3555;53.248;10.336;2023-07-28T00:28:41;2.55;;;2.03;;
7027;SDS011;3555;53.248;10.336;2023-07-28T00:31:08;2.15;;;1.95;;
7027;SDS011;3555;53.248;10.336;2023-07-28T00:33:35;2.33;;;2.13;;
7027;SDS011;3555;53.248;10.336;2023-07-28T00:36:03;2.45;;;1.60;;
7027;SDS011;3555;53.248;10.336;2023-07-28T00:38:31;1.83;;;1.70;;
7027;SDS011;3555;53.248;10.336;2023-07-28T00:40:58;2.13;;;1.92;;
7027;SDS011;3555;53.248;10.336;2023-07-28T00:43:25;2.33;;;1.90;;
7027;SDS011;3555;53.248;10.336;2023-07-28T00:45:52;2.20;;;2.00;;
7027;SDS011;3555;53.248;10.336;2023-07-28T00:48:19;2.45;;;1.98;;
7027;SDS011;3555;53.248;10.336;2023-07-28T00:50:48;3.72;;;2.50;;
7027;SDS011;3555;53.248;10.336;2023-07-28T00:53:16;6.75;;;2.00;;
7027;SDS011;3555;53.248;10.336;2023-07-28T00:55:44;1.90;;;1.70;;
7027;SDS011;3555;53.248;10.336;2023-07-28T00:58:11;2.17;;;1.92;;
7027;SDS011;3555;53.248;10.336;2023-07-28T01:00:38;1.70;;;1.60;;
7027;SDS011;3555;53.248;10.336;2023-07-28T01:03:05;1.40;;;1.30;;
7027;SDS011;3555;53.248;10.336;2023-07-28T01:05:36;1.40;;;1.30;;
7027;SDS011;3555;53.248;10.336;2023-07-28T01:08:11;1.70;;;1.50;;
7027;SDS011;3555;53.248;10.336;2023-07-28T01:10:42;3.83;;;1.40;;
7027;SDS011;3555;53.248;10.336;2023-07-28T01:13:11;2.53;;;1.50;;
7027;SDS011;3555;53.248;10.336;2023-07-28T01:15:38;1.55;;;1.38;;
7027;SDS011;3555;53.248;10.336;2023-07-28T01:18:05;1.50;;;1.40;;
7027;SDS011;3555;53.248;10.336;2023-07-28T01:20:33;1.63;;;1.42;;
7027;SDS011;3555;53.248;10.336;2023-07-28T01:23:05;2.20;;;1.23;;
7027;SDS011;3555;53.248;10.336;2023-07-28T01:25:38;2.65;;;1.50;;
7027;SDS011;3555;53.248;10.336;2023-07-28T01:28:14;1.80;;;1.50;;
7027;SDS011;3555;53.248;10.336;2023-07-28T01:30:42;1.40;;;1.30;;
7027;SDS011;3555;53.248;10.336;2023-07-28T01:33:10;1.75;;;1.50;;
7027;SDS011;3555;53.248;10.336;2023-07-28T01:35:38;1.77;;;1.38;;
7027;SDS011;3555;53.248;10.336;2023-07-28T01:38:05;1.35;;;1.20;;
7027;SDS011;3555;53.248;10.336;2023-07-28T01:40:32;1.88;;;1.30;;
7027;SDS011;3555;53.248;10.336;2023-07-28T01:42:59;1.95;;;1.40;;
7027;SDS011;3555;53.248;10.336;2023-07-28T01:45:27;1.30;;;1.10;;
7027;SDS011;3555;53.248;10.336;2023-07-28T01:47:54;1.17;;;1.08;;
7027;SDS011;3555;53.248;10.336;2023-07-28T01:50:20;1.80;;;1.25;;
7027;SDS011;3555;53.248;10.336;2023-07-28T01:52:47;1.65;;;1.20;;
7027;SDS011;3555;53.248;10.336;2023-07-28T01:55:14;1.63;;;1.27;;
7027;SDS011;3555;53.248;10.336;2023-07-28T01:57:49;1.40;;;1.13;;
7027;SDS011;3555;53.248;10.336;2023-07-28T02:00:17;1.20;;;1.10;;
7027;SDS011;3555;53.248;10.336;2023-07-28T02:02:46;1.40;;;0.90;;
7027;SDS011;3555;53.248;10.336;2023-07-28T02:05:13;1.42;;;0.90;;
7027;SDS011;3555;53.248;10.336;2023-07-28T02:07:40;1.63;;;1.10;;
7027;SDS011;3555;53.248;10.336;2023-07-28T02:10:07;1.40;;;1.10;;
7027;SDS011;3555;53.248;10.336;2023-07-28T02:12:35;1.13;;;0.95;;
7027;SDS011;3555;53.248;10.336;2023-07-28T02:15:02;2.45;;;1.00;;
7027;SDS011;3555;53.248;10.336;2023-07-28T02:17:29;1.15;;;0.98;;
7027;SDS011;3555;53.248;10.336;2023-07-28T02:19:57;1.40;;;1.13;;
7027;SDS011;3555;53.248;10.336;2023-07-28T02:22:24;1.88;;;1.30;;
7027;SDS011;3555;53.248;10.336;2023-07-28T02:24:51;1.30;;;1.10;;
7027;SDS011;3555;53.248;10.336;2023-07-28T02:27:18;1.48;;;1.13;;
7027;SDS011;3555;53.248;10.336;2023-07-28T02:29:45;1.20;;;1.05;;
7027;SDS011;3555;53.248;10.336;2023-07-28T02:32:13;1.42;;;1.10;;
7027;SDS011;3555;53.248;10.336;2023-07-28T02:34:39;1.10;;;1.00;;
7027;SDS011;3555;53.248;10.336;2023-07-28T02:37:08;3.10;;;0.90;;
7027;SDS011;3555;53.248;10.336;2023-07-28T02:39:34;1.63;;;1.10;;
7027;SDS011;3555;53.248;10.336;2023-07-28T02:42:01;2.45;;;0.80;;
7027;SDS011;3555;53.248;10.336;2023-07-28T02:44:28;1.23;;;0.90;;
7027;SDS011;3555;53.248;10.336;2023-07-28T02:46:55;1.05;;;0.85;;
7027;SDS011;3555;53.248;10.336;2023-07-28T02:49:22;1.45;;;1.08;;
7027;SDS011;3555;53.248;10.336;2023-07-28T02:51:49;1.40;;;0.90;;
7027;SDS011;3555;53.248;10.336;2023-07-28T02:54:17;0.93;;;0.75;;
7027;SDS011;3555;53.248;10.336;2023-07-28T02:56:44;1.80;;;0.90;;
7027;SDS011;3555;53.248;10.336;2023-07-28T02:59:11;1.55;;;0.98;;
7027;SDS011;3555;53.248;10.336;2023-07-28T03:01:39;1.75;;;0.95;;
7027;SDS011;3555;53.248;10.336;2023-07-28T03:04:06;1.60;;;1.02;;
7027;SDS011;3555;53.248;10.336;2023-07-28T03:06:33;1.05;;;0.90;;
7027;SDS011;3555;53.248;10.336;2023-07-28T03:09:00;1.42;;;0.80;;
7027;SDS011;3555;53.248;10.336;2023-07-28T03:11:28;1.00;;;0.90;;
7027;SDS011;3555;53.248;10.336;2023-07-28T03:13:55;1.58;;;0.90;;
7027;SDS011;3555;53.248;10.336;2023-07-28T03:16:22;1.40;;;0.90;;
7027;SDS011;3555;53.248;10.336;2023-07-28T03:18:49;1.33;;;1.00;;
7027;SDS011;3555;53.248;10.336;2023-07-28T03:21:16;1.00;;;0.90;;
7027;SDS011;3555;53.248;10.336;2023-07-28T03:23:43;1.10;;;1.00;;
7027;SDS011;3555;53.248;10.336;2023-07-28T03:26:09;2.38;;;1.00;;
7027;SDS011;3555;53.248;10.336;2023-07-28T03:28:38;1.23;;;1.13;;
7027;SDS011;3555;53.248;10.336;2023-07-28T03:31:04;2.13;;;1.30;;
7027;SDS011;3555;53.248;10.336;2023-07-28T03:33:32;1.42;;;1.15;;
7027;SDS011;3555;53.248;10.336;2023-07-28T03:35:59;1.40;;;1.00;;
7027;SDS011;3555;53.248;10.336;2023-07-28T03:38:26;2.08;;;1.02;;
7027;SDS011;3555;53.248;10.336;2023-07-28T03:40:53;2.50;;;1.02;;
7027;SDS011;3555;53.248;10.336;2023-07-28T03:43:20;1.40;;;1.20;;
7027;SDS011;3555;53.248;10.336;2023-07-28T03:45:49;1.20;;;1.10;;
7027;SDS011;3555;53.248;10.336;2023-07-28T03:48:15;1.23;;;1.08;;
7027;SDS011;3555;53.248;10.336;2023-07-28T03:50:42;1.83;;;1.48;;
7027;SDS011;3555;53.248;10.336;2023-07-28T03:53:09;1.48;;;1.10;;
7027;SDS011;3555;53.248;10.336;2023-07-28T03:55:36;1.50;;;1.30;;
7027;SDS011;3555;53.248;10.336;2023-07-28T03:58:03;2.65;;;1.40;;
7027;SDS011;3555;53.248;10.336;2023-07-28T04:00:30;2.40;;;1.50;;
7027;SDS011;3555;53.248;10.336;2023-07-28T04:02:58;3.35;;;1.35;;
7027;SDS011;3555;53.248;10.336;2023-07-28T04:05:25;2.10;;;1.70;;
7027;SDS011;3555;53.248;10.336;2023-07-28T04:07:52;2.28;;;1.63;;
7027;SDS011;3555;53.248;10.336;2023-07-28T04:10:19;3.05;;;1.98;;
7027;SDS011;3555;53.248;10.336;2023-07-28T04:12:46;2.13;;;1.77;;
7027;SDS011;3555;53.248;10.336;2023-07-28T04:15:13;2.33;;;1.92;;
7027;SDS011;3555;53.248;10.336;2023-07-28T04:17:40;3.65;;;1.70;;
7027;SDS011;3555;53.248;10.336;2023-07-28T04:20:08;3.45;;;1.80;;
7027;SDS011;3555;53.248;10.336;2023-07-28T04:22:36;4.30;;;2.38;;
7027;SDS011;3555;53.248;10.336;2023-07-28T04:25:03;2.97;;;2.42;;
7027;SDS011;3555;53.248;10.336;2023-07-28T04:27:30;2.50;;;2.22;;
7027;SDS011;3555;53.248;10.336;2023-07-28T04:29:57;3.05;;;2.13;;
7027;SDS011;3555;53.248;10.336;2023-07-28T04:32:24;2.90;;;2.50;;
7027;SDS011;3555;53.248;10.336;2023-07-28T04:34:52;2.33;;;1.85;;
7027;SDS011;3555;53.248;10.336;2023-07-28T04:37:20;3.05;;;2.38;;
7027;SDS011;3555;53.248;10.336;2023-07-28T04:39:47;4.13;;;2.20;;
7027;SDS011;3555;53.248;10.336;2023-07-28T04:42:15;2.70;;;2.10;;
7027;SDS011;3555;53.248;10.336;2023-07-28T04:44:42;2.67;;;2.00;;
7027;SDS011;3555;53.248;10.336;2023-07-28T04:47:10;1.60;;;1.50;;
7027;SDS011;3555;53.248;10.336;2023-07-28T04:49:37;1.70;;;1.40;;
7027;SDS011;3555;53.248;10.336;2023-07-28T04:52:05;1.70;;;1.50;;
7027;SDS011;3555;53.248;10.336;2023-07-28T04:54:34;3.80;;;1.48;;
7027;SDS011;3555;53.248;10.336;2023-07-28T04:57:01;1.25;;;1.15;;
7027;SDS011;3555;53.248;10.336;2023-07-28T04:59:28;2.70;;;1.40;;
7027;SDS011;3555;53.248;10.336;2023-07-28T05:01:55;2.22;;;1.15;;
7027;SDS011;3555;53.248;10.336;2023-07-28T05:04:22;4.03;;;1.20;;
7027;SDS011;3555;53.248;10.336;2023-07-28T05:06:49;1.38;;;1.20;;
7027;SDS011;3555;53.248;10.336;2023-07-28T05:09:16;3.95;;;1.20;;
7027;SDS011;3555;53.248;10.336;2023-07-28T05:11:44;1.65;;;1.35;;
7027;SDS011;3555;53.248;10.336;2023-07-28T05:14:11;1.23;;;1.08;;
7027;SDS011;3555;53.248;10.336;2023-07-28T05:16:38;1.55;;;1.20;;
7027;SDS011;3555;53.248;10.336;2023-07-28T05:19:05;2.80;;;1.98;;
7027;SDS011;3555;53.248;10.336;2023-07-28T05:21:33;2.17;;;1.95;;
7027;SDS011;3555;53.248;10.336;2023-07-28T05:24:00;3.20;;;2.45;;
7027;SDS011;3555;53.248;10.336;2023-07-28T05:26:27;1.90;;;1.70;;
7027;SDS011;3555;53.248;10.336;2023-07-28T05:28:55;2.20;;;2.00;;
7027;SDS011;3555;53.248;10.336;2023-07-28T05:31:22;2.20;;;2.00;;
7027;SDS011;3555;53.248;10.336;2023-07-28T05:33:49;2.40;;;1.90;;
7027;SDS011;3555;53.248;10.336;2023-07-28T05:36:15;2.10;;;1.50;;
7027;SDS011;3555;53.248;10.336;2023-07-28T05:38:42;2.35;;;1.60;;
7027;SDS011;3555;53.248;10.336;2023-07-28T05:41:09;3.30;;;2.00;;
7027;SDS011;3555;53.248;10.336;2023-07-28T05:43:36;2.03;;;1.83;;
7027;SDS011;3555;53.248;10.336;2023-07-28T05:46:04;2.20;;;2.00;;
7027;SDS011;3555;53.248;10.336;2023-07-28T05:48:31;2.28;;;2.08;;
7027;SDS011;3555;53.248;10.336;2023-07-28T05:50:58;2.22;;;1.88;;
7027;SDS011;3555;53.248;10.336;2023-07-28T05:53:25;1.90;;;1.70;;
7027;SDS011;3555;53.248;10.336;2023-07-28T05:55:52;1.85;;;1.70;;
7027;SDS011;3555;53.248;10.336;2023-07-28T05:58:19;1.52;;;1.42;;
7027;SDS011;3555;53.248;10.336;2023-07-28T06:00:46;3.50;;;1.20;;
7027;SDS011;3555;53.248;10.336;2023-07-28T06:03:15;1.52;;;1.23;;
7027;SDS011;3555;53.248;10.336;2023-07-28T06:05:42;1.00;;;0.88;;
7027;SDS011;3555;53.248;10.336;2023-07-28T06:08:09;1.20;;;0.93;;
7027;SDS011;3555;53.248;10.336;2023-07-28T06:10:36;1.48;;;0.88;;
7027;SDS011;3555;53.248;10.336;2023-07-28T06:13:03;1.45;;;0.90;;
7027;SDS011;3555;53.248;10.336;2023-07-28T06:15:30;1.40;;;1.10;;
7027;SDS011;3555;53.248;10.336;2023-07-28T06:17:59;1.20;;;1.10;;
7027;SDS011;3555;53.248;10.336;2023-07-28T06:20:28;1.48;;;1.00;;
7027;SDS011;3555;53.248;10.336;2023-07-28T06:22:56;1.33;;;1.10;;
7027;SDS011;3555;53.248;10.336;2023-07-28T06:25:22;3.08;;;1.35;;
7027;SDS011;3555;53.248;10.336;2023-07-28T06:27:49;1.48;;;1.20;;
7027;SDS011;3555;53.248;10.336;2023-07-28T06:30:16;0.90;;;0.70;;
7027;SDS011;3555;53.248;10.336;2023-07-28T06:32:43;1.20;;;1.00;;
7027;SDS011;3555;53.248;10.336;2023-07-28T06:35:10;1.50;;;0.80;;
7027;SDS011;3555;53.248;10.336;2023-07-28T06:37:38;2.40;;;1.10;;
7027;SDS011;3555;53.248;10.336;2023-07-28T06:40:06;1.30;;;1.00;;
7027;SDS011;3555;53.248;10.336;2023-07-28T06:42:34;1.45;;;1.08;;
7027;SDS011;3555;53.248;10.336;2023-07-28T06:45:02;2.65;;;1.30;;
7027;SDS011;3555;53.248;10.336;2023-07-28T06:47:29;1.85;;;1.10;;
7027;SDS011;3555;53.248;10.336;2023-07-28T06:49:56;1.83;;;1.40;;
7027;SDS011;3555;53.248;10.336;2023-07-28T06:52:23;2.85;;;1.20;;
7027;SDS011;3555;53.248;10.336;2023-07-28T06:54:51;3.55;;;1.08;;
7027;SDS011;3555;53.248;10.336;2023-07-28T06:57:19;2.47;;;1.30;;
7027;SDS011;3555;53.248;10.336;2023-07-28T06:59:46;1.40;;;1.10;;
7027;SDS011;3555;53.248;10.336;2023-07-28T07:02:13;1.98;;;1.20;;
7027;SDS011;3555;53.248;10.336;2023-07-28T07:04:40;1.88;;;1.50;;
7027;SDS011;3555;53.248;10.336;2023-07-28T07:07:07;3.78;;;2.20;;
7027;SDS011;3555;53.248;10.336;2023-07-28T07:09:34;2.40;;;1.90;;
7027;SDS011;3555;53.248;10.336;2023-07-28T07:12:03;2.80;;;1.80;;
7027;SDS011;3555;53.248;10.336;2023-07-28T07:14:30;3.03;;;1.88;;
7027;SDS011;3555;53.248;10.336;2023-07-28T07:16:58;2.40;;;1.40;;
7027;SDS011;3555;53.248;10.336;2023-07-28T07:19:26;1.60;;;1.40;;
7027;SDS011;3555;53.248;10.336;2023-07-28T07:21:54;1.90;;;1.70;;
7027;SDS011;3555;53.248;10.336;2023-07-28T07:24:21;2.72;;;1.60;;
7027;SDS011;3555;53.248;10.336;2023-07-28T07:26:48;4.45;;;1.90;;
7027;SDS011;3555;53.248;10.336;2023-07-28T07:29:17;2.08;;;1.88;;
7027;SDS011;3555;53.248;10.336;2023-07-28T07:31:44;2.78;;;1.90;;
7027;SDS011;3555;53.248;10.336;2023-07-28T07:34:11;2.50;;;1.80;;
7027;SDS011;3555;53.248;10.336;2023-07-28T07:36:37;2.72;;;1.70;;
7027;SDS011;3555;53.248;10.336;2023-07-28T07:39:05;2.03;;;1.48;;
7027;SDS011;3555;53.248;10.336;2023-07-28T07:41:32;2.50;;;1.50;;
7027;SDS011;3555;53.248;10.336;2023-07-28T07:43:59;1.80;;;1.58;;
7027;SDS011;3555;53.248;10.336;2023-07-28T07:46:28;3.28;;;1.33;;
7027;SDS011;3555;53.248;10.336;2023-07-28T07:48:55;2.03;;;1.48;;
7027;SDS011;3555;53.248;10.336;2023-07-28T07:51:22;4.20;;;2.13;;
7027;SDS011;3555;53.248;10.336;2023-07-28T07:53:49;2.85;;;1.60;;
7027;SDS011;3555;53.248;10.336;2023-07-28T07:56:16;1.88;;;1.50;;
7027;SDS011;3555;53.248;10.336;2023-07-28T07:58:43;1.85;;;1.60;;
7027;SDS011;3555;53.248;10.336;2023-07-28T08:01:10;2.58;;;1.77;;
7027;SDS011;3555;53.248;10.336;2023-07-28T08:03:38;3.63;;;1.88;;
7027;SDS011;3555;53.248;10.336;2023-07-28T08:06:05;2.05;;;1.80;;
7027;SDS011;3555;53.248;10.336;2023-07-28T08:08:33;1.80;;;1.52;;
7027;SDS011;3555;53.248;10.336;2023-07-28T08:11:00;4.20;;;1.50;;
7027;SDS011;3555;53.248;10.336;2023-07-28T08:13:27;2.30;;;1.60;;
7027;SDS011;3555;53.248;10.336;2023-07-28T08:15:54;1.70;;;1.60;;
7027;SDS011;3555;53.248;10.336;2023-07-28T08:18:21;2.67;;;2.33;;
7027;SDS011;3555;53.248;10.336;2023-07-28T08:20:50;3.55;;;1.95;;
7027;SDS011;3555;53.248;10.336;2023-07-28T08:23:17;1.95;;;1.63;;
7027;SDS011;3555;53.248;10.336;2023-07-28T08:25:43;1.90;;;1.67;;
7027;SDS011;3555;53.248;10.336;2023-07-28T08:28:11;1.50;;;1.40;;
7027;SDS011;3555;53.248;10.336;2023-07-28T08:30:37;1.95;;;1.70;;
7027;SDS011;3555;53.248;10.336;2023-07-28T08:33:04;3.60;;;2.05;;
7027;SDS011;3555;53.248;10.336;2023-07-28T08:35:32;2.20;;;2.00;;
7027;SDS011;3555;53.248;10.336;2023-07-28T08:38:00;2.88;;;2.35;;
7027;SDS011;3555;53.248;10.336;2023-07-28T08:40:27;2.50;;;1.80;;
7027;SDS011;3555;53.248;10.336;2023-07-28T08:42:54;2.53;;;2.33;;
7027;SDS011;3555;53.248;10.336;2023-07-28T08:45:21;3.40;;;2.20;;
7027;SDS011;3555;53.248;10.336;2023-07-28T08:47:49;4.60;;;2.47;;
7027;SDS011;3555;53.248;10.336;2023-07-28T08:50:16;2.40;;;2.20;;
7027;SDS011;3555;53.248;10.336;2023-07-28T08:52:43;2.22;;;1.90;;
7027;SDS011;3555;53.248;10.336;2023-07-28T08:55:12;2.40;;;2.20;;
7027;SDS011;3555;53.248;10.336;2023-07-28T08:57:39;2.33;;;2.13;;
7027;SDS011;3555;53.248;10.336;2023-07-28T09:00:07;3.47;;;2.30;;
7027;SDS011;3555;53.248;10.336;2023-07-28T09:02:38;2.53;;;2.33;;
7027;SDS011;3555;53.248;10.336;2023-07-28T09:05:05;2.70;;;2.50;;
7027;SDS011;3555;53.248;10.336;2023-07-28T09:07:33;3.65;;;2.60;;
7027;SDS011;3555;53.248;10.336;2023-07-28T09:10:01;3.25;;;2.72;;
7027;SDS011;3555;53.248;10.336;2023-07-28T09:12:32;2.63;;;2.42;;
7027;SDS011;3555;53.248;10.336;2023-07-28T09:14:59;2.50;;;2.25;;
7027;SDS011;3555;53.248;10.336;2023-07-28T09:17:26;4.93;;;2.50;;
7027;SDS011;3555;53.248;10.336;2023-07-28T09:19:54;2.95;;;2.75;;
7027;SDS011;3555;53.248;10.336;2023-07-28T09:22:22;3.42;;;2.55;;
7027;SDS011;3555;53.248;10.336;2023-07-28T09:24:50;2.58;;;2.38;;
7027;SDS011;3555;53.248;10.336;2023-07-28T09:27:21;2.92;;;2.30;;
7027;SDS011;3555;53.248;10.336;2023-07-28T09:29:51;3.92;;;3.35;;
7027;SDS011;3555;53.248;10.336;2023-07-28T09:32:26;2.50;;;2.30;;
7027;SDS011;3555;53.248;10.336;2023-07-28T09:35:05;2.55;;;2.30;;
7027;SDS011;3555;53.248;10.336;2023-07-28T09:37:39;2.40;;;2.20;;
7027;SDS011;3555;53.248;10.336;2023-07-28T09:40:07;2.38;;;2.10;;
7027;SDS011;3555;53.248;10.336;2023-07-28T09:42:39;1.98;;;1.60;;
7027;SDS011;3555;53.248;10.336;2023-07-28T09:45:08;2.22;;;2.00;;
7027;SDS011;3555;53.248;10.336;2023-07-28T09:47:36;1.77;;;1.67;;
7027;SDS011;3555;53.248;10.336;2023-07-28T09:50:05;2.03;;;1.90;;
7027;SDS011;3555;53.248;10.336;2023-07-28T09:52:34;1.67;;;1.55;;
7027;SDS011;3555;53.248;10.336;2023-07-28T09:55:05;3.55;;;1.98;;
7027;SDS011;3555;53.248;10.336;2023-07-28T09:57:35;1.65;;;1.55;;
7027;SDS011;3555;53.248;10.336;2023-07-28T10:00:05;1.60;;;1.50;;
7027;SDS011;3555;53.248;10.336;2023-07-28T10:02:38;1.70;;;1.60;;
7027;SDS011;3555;53.248;10.336;2023-07-28T10:05:06;1.98;;;1.50;;
7027;SDS011;3555;53.248;10.336;2023-07-28T10:07:35;1.48;;;1.38;;
7027;SDS011;3555;53.248;10.336;2023-07-28T10:10:05;3.15;;;1.85;;
7027;SDS011;3555;53.248;10.336;2023-07-28T10:12:39;1.80;;;1.60;;
7027;SDS011;3555;53.248;10.336;2023-07-28T10:15:11;2.10;;;1.85;;
7027;SDS011;3555;53.248;10.336;2023-07-28T10:17:42;1.42;;;1.33;;
7027;SDS011;3555;53.248;10.336;2023-07-28T10:20:32;2.15;;;1.55;;
7027;SDS011;3555;53.248;10.336;2023-07-28T10:23:04;1.60;;;1.50;;
7027;SDS011;3555;53.248;10.336;2023-07-28T10:25:32;1.70;;;1.60;;
7027;SDS011;3555;53.248;10.336;2023-07-28T10:28:01;2.25;;;1.60;;
7027;SDS011;3555;53.248;10.336;2023-07-28T10:30:32;2.00;;;1.80;;
7027;SDS011;3555;53.248;10.336;2023-07-28T10:33:05;1.80;;;1.70;;
7027;SDS011;3555;53.248;10.336;2023-07-28T10:35:32;1.63;;;1.50;;
7027;SDS011;3555;53.248;10.336;2023-07-28T10:38:27;1.67;;;1.48;;
7027;SDS011;3555;53.248;10.336;2023-07-28T10:41:04;2.30;;;1.70;;
7027;SDS011;3555;53.248;10.336;2023-07-28T10:43:33;2.40;;;1.42;;
7027;SDS011;3555;53.248;10.336;2023-07-28T10:46:01;4.22;;;2.00;;
7027;SDS011;3555;53.248;10.336;2023-07-28T10:48:30;2.65;;;1.52;;
7027;SDS011;3555;53.248;10.336;2023-07-28T10:50:56;3.03;;;1.80;;
7027;SDS011;3555;53.248;10.336;2023-07-28T10:53:23;2.00;;;1.80;;
7027;SDS011;3555;53.248;10.336;2023-07-28T10:55:50;1.95;;;1.85;;
7027;SDS011;3555;53.248;10.336;2023-07-28T10:58:18;2.08;;;1.80;;
7027;SDS011;3555;53.248;10.336;2023-07-28T11:00:46;1.73;;;1.35;;
7027;SDS011;3555;53.248;10.336;2023-07-28T11:03:14;1.52;;;1.42;;
7027;SDS011;3555;53.248;10.336;2023-07-28T11:05:41;3.25;;;1.73;;
7027;SDS011;3555;53.248;10.336;2023-07-28T11:08:08;2.40;;;1.42;;
7027;SDS011;3555;53.248;10.336;2023-07-28T11:10:36;1.35;;;1.15;;
7027;SDS011;3555;53.248;10.336;2023-07-28T11:13:06;3.58;;;1.48;;
7027;SDS011;3555;53.248;10.336;2023-07-28T11:15:33;1.80;;;1.70;;
7027;SDS011;3555;53.248;10.336;2023-07-28T11:18:00;1.30;;;1.20;;
7027;SDS011;3555;53.248;10.336;2023-07-28T11:20:30;2.92;;;1.30;;
7027;SDS011;3555;53.248;10.336;2023-07-28T11:22:58;1.35;;;1.20;;
7027;SDS011;3555;53.248;10.336;2023-07-28T11:25:26;1.55;;;1.45;;
7027;SDS011;3555;53.248;10.336;2023-07-28T11:27:54;1.20;;;1.10;;
7027;SDS011;3555;53.248;10.336;2023-07-28T11:30:22;1.50;;;1.40;;
7027;SDS011;3555;53.248;10.336;2023-07-28T11:32:50;1.30;;;1.20;;
7027;SDS011;3555;53.248;10.336;2023-07-28T11:35:18;2.22;;;1.50;;
7027;SDS011;3555;53.248;10.336;2023-07-28T11:37:48;2.50;;;1.50;;
7027;SDS011;3555;53.248;10.336;2023-07-28T11:40:18;1.60;;;1.50;;
7027;SDS011;3555;53.248;10.336;2023-07-28T11:42:46;1.40;;;1.30;;
7027;SDS011;3555;53.248;10.336;2023-07-28T11:45:16;1.45;;;1.35;;
7027;SDS011;3555;53.248;10.336;2023-07-28T11:47:52;1.60;;;1.30;;
7027;SDS011;3555;53.248;10.336;2023-07-28T11:50:22;1.60;;;1.50;;
7027;SDS011;3555;53.248;10.336;2023-07-28T11:52:51;2.55;;;1.40;;
7027;SDS011;3555;53.248;10.336;2023-07-28T11:55:19;1.70;;;1.52;;
7027;SDS011;3555;53.248;10.336;2023-07-28T11:57:47;1.60;;;1.50;;
7027;SDS011;3555;53.248;10.336;2023-07-28T12:00:15;1.50;;;1.40;;
7027;SDS011;3555;53.248;10.336;2023-07-28T12:02:43;1.67;;;1.55;;
7027;SDS011;3555;53.248;10.336;2023-07-28T12:05:14;2.67;;;2.05;;
7027;SDS011;3555;53.248;10.336;2023-07-28T12:07:41;2.67;;;1.80;;
7027;SDS011;3555;53.248;10.336;2023-07-28T12:10:15;2.03;;;1.90;;
7027;SDS011;3555;53.248;10.336;2023-07-28T12:12:43;2.13;;;1.60;;
7027;SDS011;3555;53.248;10.336;2023-07-28T12:15:21;3.65;;;1.80;;
7027;SDS011;3555;53.248;10.336;2023-07-28T12:18:02;1.83;;;1.73;;
7027;SDS011;3555;53.248;10.336;2023-07-28T12:20:34;2.53;;;1.85;;
7027;SDS011;3555;53.248;10.336;2023-07-28T12:23:03;2.10;;;1.77;;
7027;SDS011;3555;53.248;10.336;2023-07-28T12:25:31;2.28;;;2.08;;
7027;SDS011;3555;53.248;10.336;2023-07-28T12:27:59;1.83;;;1.73;;
7027;SDS011;3555;53.248;10.336;2023-07-28T12:30:26;2.25;;;1.98;;
7027;SDS011;3555;53.248;10.336;2023-07-28T12:32:53;2.00;;;1.80;;
7027;SDS011;3555;53.248;10.336;2023-07-28T12:35:20;2.05;;;1.88;;
7027;SDS011;3555;53.248;10.336;2023-07-28T12:37:48;2.45;;;1.83;;
7027;SDS011;3555;53.248;10.336;2023-07-28T12:40:15;2.38;;;1.90;;
7027;SDS011;3555;53.248;10.336;2023-07-28T12:42:43;1.85;;;1.65;;
7027;SDS011;3555;53.248;10.336;2023-07-28T12:45:11;2.00;;;1.80;;
7027;SDS011;3555;53.248;10.336;2023-07-28T12:47:38;2.03;;;1.83;;
7027;SDS011;3555;53.248;10.336;2023-07-28T12:50:05;2.45;;;1.98;;
7027;SDS011;3555;53.248;10.336;2023-07-28T12:52:32;2.60;;;1.80;;
7027;SDS011;3555;53.248;10.336;2023-07-28T12:54:59;2.55;;;1.98;;
7027;SDS011;3555;53.248;10.336;2023-07-28T12:57:26;1.88;;;1.77;;
7027;SDS011;3555;53.248;10.336;2023-07-28T12:59:54;2.05;;;1.70;;
7027;SDS011;3555;53.248;10.336;2023-07-28T13:02:21;1.98;;;1.83;;
7027;SDS011;3555;53.248;10.336;2023-07-28T13:04:48;2.03;;;1.65;;
7027;SDS011;3555;53.248;10.336;2023-07-28T13:07:15;1.77;;;1.67;;
7027;SDS011;3555;53.248;10.336;2023-07-28T13:09:43;1.80;;;1.70;;
7027;SDS011;3555;53.248;10.336;2023-07-28T13:12:10;1.90;;;1.80;;
7027;SDS011;3555;53.248;10.336;2023-07-28T13:14:38;2.45;;;1.90;;
7027;SDS011;3555;53.248;10.336;2023-07-28T13:17:06;2.50;;;1.90;;
7027;SDS011;3555;53.248;10.336;2023-07-28T13:19:33;2.03;;;1.83;;
7027;SDS011;3555;53.248;10.336;2023-07-28T13:21:59;2.10;;;1.90;;
7027;SDS011;3555;53.248;10.336;2023-07-28T13:24:27;1.80;;;1.60;;
7027;SDS011;3555;53.248;10.336;2023-07-28T13:26:53;6.25;;;1.98;;
7027;SDS011;3555;53.248;10.336;2023-07-28T13:29:20;1.73;;;1.63;;
7027;SDS011;3555;53.248;10.336;2023-07-28T13:31:47;2.40;;;1.77;;
7027;SDS011;3555;53.248;10.336;2023-07-28T13:34:16;2.55;;;1.92;;
7027;SDS011;3555;53.248;10.336;2023-07-28T13:36:42;2.38;;;1.85;;
7027;SDS011;3555;53.248;10.336;2023-07-28T13:39:09;1.67;;;1.55;;
7027;SDS011;3555;53.248;10.336;2023-07-28T13:41:36;1.35;;;1.20;;
7027;SDS011;3555;53.248;10.336;2023-07-28T13:44:03;1.55;;;1.30;;
7027;SDS011;3555;53.248;10.336;2023-07-28T13:46:30;1.65;;;1.55;;
7027;SDS011;3555;53.248;10.336;2023-07-28T13:48:57;2.35;;;1.55;;
7027;SDS011;3555;53.248;10.336;2023-07-28T13:51:26;1.60;;;1.42;;
7027;SDS011;3555;53.248;10.336;2023-07-28T13:53:53;1.30;;;1.10;;
7027;SDS011;3555;53.248;10.336;2023-07-28T13:56:20;1.33;;;1.23;;
7027;SDS011;3555;53.248;10.336;2023-07-28T13:58:47;2.13;;;1.27;;
7027;SDS011;3555;53.248;10.336;2023-07-28T14:01:14;1.40;;;1.30;;
7027;SDS011;3555;53.248;10.336;2023-07-28T14:03:41;1.63;;;1.23;;
7027;SDS011;3555;53.248;10.336;2023-07-28T14:06:09;1.80;;;1.08;;
7027;SDS011;3555;53.248;10.336;2023-07-28T14:08:37;1.10;;;1.00;;
7027;SDS011;3555;53.248;10.336;2023-07-28T14:11:04;1.33;;;1.15;;
7027;SDS011;3555;53.248;10.336;2023-07-28T14:13:31;1.20;;;1.10;;
7027;SDS011;3555;53.248;10.336;2023-07-28T14:15:58;1.45;;;1.15;;
7027;SDS011;3555;53.248;10.336;2023-07-28T14:18:25;2.10;;;1.00;;
7027;SDS011;3555;53.248;10.336;2023-07-28T14:20:52;1.52;;;1.10;;
7027;SDS011;3555;53.248;10.336;2023-07-28T14:23:22;1.23;;;1.10;;
7027;SDS011;3555;53.248;10.336;2023-07-28T14:25:51;1.65;;;1.00;;
7027;SDS011;3555;53.248;10.336;2023-07-28T14:28:18;1.27;;;0.95;;
7027;SDS011;3555;53.248;10.336;2023-07-28T14:30:46;1.15;;;0.85;;
7027;SDS011;3555;53.248;10.336;2023-07-28T14:33:13;1.15;;;0.95;;
7027;SDS011;3555;53.248;10.336;2023-07-28T14:35:40;1.42;;;0.82;;
7027;SDS011;3555;53.248;10.336;2023-07-28T14:38:07;2.90;;;1.02;;
7027;SDS011;3555;53.248;10.336;2023-07-28T14:40:35;1.10;;;0.82;;
7027;SDS011;3555;53.248;10.336;2023-07-28T14:43:03;1.20;;;1.00;;
7027;SDS011;3555;53.248;10.336;2023-07-28T14:45:30;1.90;;;1.30;;
7027;SDS011;3555;53.248;10.336;2023-07-28T14:47:57;1.00;;;0.90;;
7027;SDS011;3555;53.248;10.336;2023-07-28T14:50:25;1.25;;;1.10;;
7027;SDS011;3555;53.248;10.336;2023-07-28T14:52:52;1.70;;;1.10;;
7027;SDS011;3555;53.248;10.336;2023-07-28T14:55:19;3.08;;;1.13;;
7027;SDS011;3555;53.248;10.336;2023-07-28T14:57:46;1.70;;;0.85;;
7027;SDS011;3555;53.248;10.336;2023-07-28T15:00:14;1.00;;;0.73;;
7027;SDS011;3555;53.248;10.336;2023-07-28T15:02:41;1.20;;;0.82;;
7027;SDS011;3555;53.248;10.336;2023-07-28T15:05:08;1.13;;;0.65;;